Bhakkar Weather



Bhakkar's Current Weather

Temprature 23.11o overcast clouds

overcast clouds

Rain: 0 %

Min Temprature23.11o
Max Temprature23.11o
Humidity37
Wind Speed0.44 m/h
Sun Rise05:54:02
Sun Set18:40:02
Current Time: 09-Apr-2020 02:46:17
Lat/Lon: 31.63, 71.07




Bhakkar's Geo Location



Bhakkar's Weather Forecast

Time Overall Temp Min Temp Max Temp Humidity Wind Speed Rain
09-Apr-2020 (Thu)
05:00:00 overcast clouds 21.870 21.870 21.870 38 1.28 m/h 0 %
08:00:00 overcast clouds 25.410 25.410 25.410 30 1.35 m/h 0 %
11:00:00 overcast clouds 29.820 29.820 29.820 23 3.55 m/h 0 %
14:00:00 broken clouds 32.940 32.940 32.940 19 5.31 m/h 0 %
17:00:00 overcast clouds 32.680 32.680 32.680 19 5.71 m/h 0 %
20:00:00 light rain 27.380 27.380 27.380 29 3.05 m/h 31 %
23:00:00 light rain 24.830 24.830 24.830 39 5.76 m/h 33 %
10-Apr-2020 (Fri)
02:00:00 clear sky 21.680 21.680 21.680 52 5.1 m/h 0 %
05:00:00 few clouds 20.470 20.470 20.470 56 5.7 m/h 0 %
08:00:00 clear sky 22.380 22.380 22.380 49 4.64 m/h 0 %
11:00:00 clear sky 28.580 28.580 28.580 31 3.71 m/h 0 %
14:00:00 clear sky 31.860 31.860 31.860 24 3.7 m/h 0 %
17:00:00 few clouds 31.950 31.950 31.950 24 3.74 m/h 0 %
20:00:00 few clouds 28.080 28.080 28.080 31 3.19 m/h 0 %
23:00:00 scattered clouds 26.330 26.330 26.330 34 2.82 m/h 0 %
11-Apr-2020 (Sat)
02:00:00 overcast clouds 24.780 24.780 24.780 37 1.84 m/h 0 %
05:00:00 overcast clouds 24.010 24.010 24.010 40 2.13 m/h 0 %
08:00:00 scattered clouds 27.960 27.960 27.960 32 0.88 m/h 0 %
11:00:00 broken clouds 32.600 32.600 32.600 21 1.15 m/h 0 %
14:00:00 scattered clouds 34.870 34.870 34.870 18 1.82 m/h 0 %
17:00:00 broken clouds 34.980 34.980 34.980 18 1.19 m/h 0 %
20:00:00 overcast clouds 30.810 30.810 30.810 23 2.13 m/h 0 %
23:00:00 overcast clouds 28.850 28.850 28.850 26 2.61 m/h 0 %
12-Apr-2020 (Sun)
02:00:00 overcast clouds 26.920 26.920 26.920 28 1.78 m/h 0 %
05:00:00 overcast clouds 25.430 25.430 25.430 30 1.23 m/h 0 %
08:00:00 overcast clouds 29.540 29.540 29.540 24 0.69 m/h 0 %
11:00:00 overcast clouds 34.150 34.150 34.150 19 0.6 m/h 0 %
14:00:00 overcast clouds 36.640 36.640 36.640 16 0.99 m/h 0 %
17:00:00 broken clouds 36.910 36.910 36.910 16 3.04 m/h 0 %
20:00:00 scattered clouds 32.510 32.510 32.510 22 2.46 m/h 0 %
23:00:00 broken clouds 30.560 30.560 30.560 24 2.2 m/h 0 %
13-Apr-2020 (Mon)
02:00:00 overcast clouds 28.150 28.150 28.150 30 0.83 m/h 0 %
05:00:00 overcast clouds 27.210 27.210 27.210 29 1.36 m/h 0 %
08:00:00 broken clouds 31.060 31.060 31.060 24 2.41 m/h 0 %
11:00:00 scattered clouds 36.010 36.010 36.010 17 2.23 m/h 0 %
14:00:00 clear sky 39.490 39.490 39.490 12 1.9 m/h 0 %
17:00:00 clear sky 39.830 39.830 39.830 9 1.06 m/h 0 %
20:00:00 clear sky 34.770 34.770 34.770 14 3.78 m/h 0 %
23:00:00 scattered clouds 32.390 32.390 32.390 19 4.39 m/h 0 %
14-Apr-2020 (Tue)
02:00:00 scattered clouds 29.190 29.190 29.190 23 0.76 m/h 0 %


Bhakkar's Tourist Spots

Historical Places in Bhakkar

Famous Cities (61)